createdAt,value
2019-05-21T00:01:58.491Z,1197.20
2019-05-21T00:07:03.524Z,1020.15
2019-05-21T00:12:08.586Z,1070.60
2019-05-21T00:17:14.210Z,963.40
2019-05-21T00:22:19.914Z,823.90
2019-05-21T00:27:24.959Z,721.20
2019-05-21T00:32:30.105Z,577.75
2019-05-21T00:37:35.369Z,510.90
2019-05-21T00:42:40.417Z,407.00
2019-05-21T00:47:45.477Z,302.50
2019-05-21T00:52:50.539Z,210.50
2019-05-21T00:57:55.678Z,139.30
2019-05-21T01:03:00.707Z,104.30
2019-05-21T01:08:05.753Z,44.40
2019-05-21T01:13:10.805Z,36.90
2019-05-21T01:18:15.867Z,25.60
2019-05-21T01:23:20.902Z,24.43
2019-05-21T01:28:25.977Z,21.65
2019-05-21T01:33:31.000Z,22.10
2019-05-21T01:38:36.045Z,20.35
2019-05-21T01:43:41.093Z,23.55
2019-05-21T01:48:46.171Z,24.55
2019-05-21T01:53:51.194Z,22.20
2019-05-21T01:58:56.144Z,24.20
2019-05-21T02:04:01.237Z,24.50
2019-05-21T02:09:06.247Z,23.93
2019-05-21T02:14:11.302Z,24.33
2019-05-21T02:19:16.354Z,23.77
2019-05-21T02:24:21.392Z,25.63
2019-05-21T02:29:26.443Z,23.90
2019-05-21T02:34:31.493Z,23.93
2019-05-21T02:39:36.556Z,22.80
2019-05-21T02:44:41.592Z,24.17
2019-05-21T02:49:46.632Z,23.07
2019-05-21T02:54:51.697Z,23.05
2019-05-21T02:59:58.274Z,20.60
2019-05-21T03:05:03.338Z,21.50
2019-05-21T03:10:08.273Z,21.35
2019-05-21T03:15:13.205Z,25.20
2019-05-21T03:20:18.157Z,23.00
2019-05-21T03:25:23.121Z,23.55
2019-05-21T03:30:28.167Z,23.95
2019-05-21T03:35:33.327Z,23.30
2019-05-21T03:45:42.997Z,24.20
2019-05-21T03:50:47.937Z,24.10
2019-05-21T04:16:26.992Z,23.50
2019-05-21T04:21:32.330Z,24.40
2019-05-21T04:31:43.481Z,23.20
2019-05-21T04:36:48.666Z,21.75
2019-05-21T04:41:53.704Z,20.80
2019-05-21T04:46:58.761Z,21.00
2019-05-21T04:52:04.127Z,23.50
2019-05-21T04:57:09.485Z,23.70
2019-05-21T05:02:35.493Z,21.87
2019-05-21T05:07:40.661Z,21.50
2019-05-21T05:12:45.694Z,19.87
2019-05-21T05:17:50.750Z,19.00
2019-05-21T05:22:55.812Z,19.90
2019-05-21T05:28:00.952Z,20.30
2019-05-21T05:33:05.989Z,19.80
2019-05-21T05:38:11.069Z,20.20
2019-05-21T05:43:16.104Z,20.55
2019-05-21T05:48:21.245Z,22.20
2019-05-21T05:53:26.296Z,24.55
2019-05-21T05:58:31.340Z,21.20
2019-05-21T06:03:36.362Z,20.40
2019-05-21T06:08:41.454Z,21.50
2019-05-21T06:13:46.504Z,22.75
2019-05-21T06:18:51.540Z,21.25
2019-05-21T06:23:56.699Z,22.65
2019-05-21T06:29:01.768Z,23.30
2019-05-21T06:34:06.795Z,21.15
2019-05-21T06:39:11.883Z,21.80
2019-05-21T06:44:16.988Z,21.40
2019-05-21T06:49:22.061Z,20.85
2019-05-21T06:54:27.119Z,19.80
2019-05-21T06:59:32.254Z,19.50
2019-05-21T07:04:37.303Z,20.80
2019-05-21T07:09:42.359Z,18.55
2019-05-21T07:14:47.398Z,20.40
2019-05-21T07:19:54.305Z,19.50
2019-05-21T07:24:59.343Z,33.30
2019-05-21T07:30:04.399Z,355.90
2019-05-21T07:35:09.470Z,322.90
2019-05-21T07:40:14.472Z,496.90
2019-05-21T07:45:19.545Z,1027.50
2019-05-21T07:50:24.584Z,958.60
2019-05-21T07:55:29.643Z,716.05
2019-05-21T08:00:34.680Z,764.70
2019-05-21T08:05:39.730Z,743.20
2019-05-21T08:10:44.769Z,698.90
2019-05-21T08:15:49.845Z,623.00
2019-05-21T08:20:54.854Z,537.20
2019-05-21T08:25:59.922Z,441.30
2019-05-21T08:31:04.977Z,342.50
2019-05-21T08:36:10.005Z,295.75
2019-05-21T08:41:15.125Z,256.45
2019-05-21T08:46:20.099Z,184.70
2019-05-21T08:51:25.162Z,131.50
2019-05-21T08:56:30.225Z,81.20
2019-05-21T09:01:35.269Z,59.00
2019-05-21T09:06:40.313Z,31.80
2019-05-21T09:11:45.364Z,27.10
2019-05-21T09:16:50.587Z,21.75
2019-05-21T09:21:55.692Z,18.95
2019-05-21T09:27:00.744Z,23.30
2019-05-21T09:32:05.771Z,21.30
2019-05-21T09:37:19.198Z,18.25
2019-05-21T09:42:17.598Z,17.40
2019-05-21T09:47:22.661Z,19.25
2019-05-21T09:52:27.705Z,19.25
2019-05-21T09:57:34.396Z,20.20
2019-05-21T10:02:39.643Z,17.40
2019-05-21T10:07:44.698Z,17.75
2019-05-21T10:12:49.750Z,17.10
2019-05-21T10:17:54.807Z,18.70
2019-05-21T10:22:59.841Z,18.95
2019-05-21T10:28:04.879Z,19.20
2019-05-21T10:33:09.951Z,19.85
2019-05-21T10:38:15.001Z,19.70
2019-05-21T10:43:20.049Z,17.80
2019-05-21T10:48:25.079Z,18.50
2019-05-21T10:53:30.155Z,18.25
2019-05-21T10:58:35.327Z,18.85
2019-05-21T11:04:14.868Z,17.80
2019-05-21T11:09:21.954Z,20.90
2019-05-21T11:14:27.016Z,17.90
2019-05-21T11:19:32.046Z,21.30
2019-05-21T11:24:37.113Z,21.60
2019-05-21T11:29:42.138Z,19.10
2019-05-21T11:34:50.032Z,20.40
2019-05-21T11:39:53.990Z,20.55
2019-05-21T11:44:59.041Z,21.60
2019-05-21T11:50:04.086Z,17.40
2019-05-21T11:55:09.182Z,15.60
2019-05-21T12:00:14.797Z,17.05
2019-05-21T12:05:19.936Z,20.70
2019-05-21T12:10:25.920Z,20.80
2019-05-21T12:15:30.990Z,21.35
2019-05-21T12:20:37.528Z,22.70
2019-05-21T12:25:42.957Z,19.95
2019-05-21T12:30:48.066Z,22.00
2019-05-21T12:35:53.101Z,19.70
2019-05-21T12:40:58.154Z,17.45
2019-05-21T12:46:03.249Z,16.25
2019-05-21T12:51:08.370Z,18.25
2019-05-21T12:56:13.415Z,18.85
2019-05-21T13:01:18.468Z,18.45
2019-05-21T13:06:23.526Z,20.20
2019-05-21T13:11:28.566Z,20.50
2019-05-21T13:16:33.612Z,20.90
2019-05-21T13:21:39.097Z,16.95
2019-05-21T13:26:44.354Z,20.40
2019-05-21T13:31:49.486Z,94.50
2019-05-21T13:36:54.508Z,83.65
2019-05-21T13:41:59.590Z,135.50
2019-05-21T13:47:04.719Z,282.95
2019-05-21T13:52:09.800Z,195.20
2019-05-21T13:57:15.444Z,153.50
2019-05-21T14:02:21.513Z,178.50
2019-05-21T14:07:26.556Z,130.60
2019-05-21T14:12:37.969Z,158.90
2019-05-21T14:17:44.238Z,388.20
2019-05-21T14:22:53.967Z,258.80
2019-05-21T14:28:00.387Z,274.70
2019-05-21T14:33:06.862Z,482.20
2019-05-21T14:38:11.904Z,423.10
2019-05-21T14:43:16.964Z,313.80
2019-05-21T14:48:21.998Z,216.80
2019-05-21T14:53:27.059Z,305.10
2019-05-21T14:58:32.109Z,356.20
2019-05-21T15:03:37.150Z,192.50
2019-05-21T15:08:42.202Z,270.05
2019-05-21T15:13:47.250Z,397.70
2019-05-21T15:18:53.432Z,427.75
2019-05-21T15:23:58.478Z,437.05
2019-05-21T15:29:08.540Z,474.85
2019-05-21T15:34:13.821Z,560.30
2019-05-21T15:39:18.952Z,677.30
2019-05-21T15:44:24.001Z,655.20
2019-05-21T15:49:36.012Z,928.40
2019-05-21T15:54:36.485Z,886.50
2019-05-21T15:59:42.859Z,861.95
2019-05-21T16:04:49.610Z,831.55
2019-05-21T16:09:55.131Z,840.30
2019-05-21T16:15:00.138Z,821.90
2019-05-21T16:20:05.178Z,733.40
2019-05-21T16:25:10.231Z,651.55
2019-05-21T16:30:15.267Z,532.05
2019-05-21T16:35:20.314Z,397.00
2019-05-21T16:40:25.369Z,334.00
2019-05-21T16:45:30.548Z,265.30
2019-05-21T16:50:35.580Z,191.80
2019-05-21T16:55:40.614Z,126.80
2019-05-21T17:00:45.986Z,95.90
2019-05-21T17:06:03.018Z,76.15
2019-05-21T17:11:08.209Z,84.50
2019-05-21T17:16:13.526Z,213.30
2019-05-21T17:21:18.686Z,272.90
2019-05-21T17:26:24.275Z,370.90
2019-05-21T17:31:29.389Z,555.00
2019-05-21T17:36:34.690Z,567.10
2019-05-21T17:41:40.781Z,667.25
2019-05-21T17:46:46.010Z,1184.90
2019-05-21T17:51:51.324Z,1097.40
2019-05-21T17:56:56.598Z,985.00
2019-05-21T18:02:03.378Z,985.05
2019-05-21T18:07:10.876Z,955.95
2019-05-21T18:12:31.241Z,924.70
2019-05-21T18:17:24.863Z,869.20
2019-05-21T18:22:31.106Z,831.20
2019-05-21T18:27:37.779Z,810.65
2019-05-21T18:32:44.077Z,803.75
2019-05-21T18:37:53.490Z,897.80
2019-05-21T18:42:59.579Z,845.00
2019-05-21T18:48:04.818Z,1031.90
2019-05-21T18:53:10.861Z,1074.60
2019-05-21T18:58:17.795Z,1181.50
2019-05-21T19:03:26.150Z,1092.55
2019-05-21T19:08:29.791Z,1173.90
2019-05-21T19:13:34.841Z,1130.80
2019-05-21T19:18:40.498Z,1431.45
2019-05-21T19:23:45.792Z,1134.10
2019-05-21T19:28:51.754Z,1153.60
2019-05-21T19:33:56.786Z,1187.70
2019-05-21T19:39:01.826Z,1323.30
2019-05-21T19:44:07.183Z,1399.75
2019-05-21T19:49:12.258Z,1345.30
2019-05-21T19:54:17.278Z,1506.70
2019-05-21T19:59:23.088Z,1386.10
2019-05-21T20:04:30.657Z,1400.20
2019-05-21T20:09:37.151Z,1357.40
2019-05-21T20:14:42.490Z,1410.70
2019-05-21T20:19:48.479Z,1531.80
2019-05-21T20:24:54.477Z,1534.70
2019-05-21T20:30:12.338Z,1488.80
2019-05-21T20:35:06.910Z,1592.95
2019-05-21T20:40:13.697Z,1637.45
2019-05-21T20:45:20.181Z,1473.65
2019-05-21T20:50:26.509Z,1622.25
2019-05-21T20:55:31.905Z,1643.80
2019-05-21T21:00:44.946Z,1681.70
2019-05-21T21:05:50.606Z,1936.10
2019-05-21T21:10:55.640Z,1999.90
2019-05-21T21:16:04.543Z,1999.90
2019-05-21T21:21:11.461Z,1999.90
2019-05-21T21:26:16.947Z,1999.90
2019-05-21T21:31:22.221Z,1811.90
2019-05-21T21:36:27.545Z,1785.95
2019-05-21T21:41:32.828Z,1460.00
2019-05-21T21:46:37.866Z,1710.05
2019-05-21T21:51:42.917Z,1414.70
2019-05-21T21:56:47.957Z,1319.75
2019-05-21T22:01:53.009Z,1268.30
2019-05-21T22:06:59.298Z,1242.40
2019-05-21T22:12:04.374Z,1410.75
2019-05-21T22:17:11.326Z,1401.35
2019-05-21T22:22:16.691Z,1373.80
2019-05-21T22:27:21.718Z,1702.45
2019-05-21T22:32:27.403Z,1500.05
2019-05-21T22:37:32.563Z,1487.40
2019-05-21T22:42:38.028Z,1305.85
2019-05-21T22:47:43.156Z,1317.80
2019-05-21T22:52:48.228Z,986.50
2019-05-21T22:57:53.252Z,941.50
2019-05-21T23:02:58.312Z,954.10
2019-05-21T23:08:56.433Z,849.05
2019-05-21T23:14:01.468Z,704.20
2019-05-21T23:19:08.128Z,589.00
2019-05-21T23:24:14.732Z,577.10
2019-05-21T23:29:19.759Z,545.40
2019-05-21T23:34:24.823Z,461.95
2019-05-21T23:39:31.525Z,344.25
2019-05-21T23:44:36.705Z,301.70
2019-05-21T23:49:41.610Z,946.45
2019-05-21T23:54:46.643Z,916.90
2019-05-21T23:59:52.219Z,951.50
